Time;durP1;ratioP1;P1;durP2;ratioP2;P2;SDS_P1;SDS_P2;PMS_P1;PMS_P2;Temp;Humidity;BMP_temperature;BMP_pressure;BME280_temperature;BME280_humidity;BME280_pressure;Samples;Min_cycle;Max_cycle;Signal;HPM_P1;HPM_P2
2023/10/07 00:04:55;;;;;;;8.00;3.10;;;;;;;12.61;96.89;99314.38;273096;1272;22176;-82
2023/10/07 00:11:00;;;;;;;6.60;2.90;;;;;;;12.44;96.60;99310.54;272577;1270;22212;-82
2023/10/07 00:17:05;;;;;;;6.50;2.60;;;;;;;12.26;96.67;99307.86;272763;1272;22207;-83
2023/10/07 00:23:09;;;;;;;4.60;2.40;;;;;;;12.18;96.63;99302.62;273368;1273;23147;-82
2023/10/07 00:29:12;;;;;;;7.60;2.50;;;;;;;12.12;96.89;99289.77;272792;1272;22625;-82
2023/10/07 00:35:16;;;;;;;6.20;2.50;;;;;;;12.10;97.12;99284.27;272689;1272;22182;-81
2023/10/07 00:41:18;;;;;;;5.00;1.90;;;;;;;12.11;97.38;99282.85;269684;1272;22539;-82
2023/10/07 00:47:21;;;;;;;7.00;2.40;;;;;;;12.11;97.96;99278.55;269534;1271;23462;-81
2023/10/07 00:54:23;;;;;;;6.10;2.20;;;;;;;12.05;97.39;99262.96;271321;1267;23542;-82
2023/10/07 01:06:31;;;;;;;8.40;2.80;;;;;;;11.92;96.37;99240.02;272729;1272;23938;-82
2023/10/07 01:12:38;;;;;;;4.30;2.10;;;;;;;11.86;96.52;99232.06;272734;1271;22285;-81
2023/10/07 01:18:40;;;;;;;5.10;2.30;;;;;;;11.80;96.43;99231.52;272732;1272;22177;-82
2023/10/07 01:24:46;;;;;;;8.00;2.50;;;;;;;11.76;96.48;99229.38;272921;1272;22284;-81
2023/10/07 01:31:12;;;;;;;4.50;2.40;;;;;;;11.69;96.27;99223.11;272696;1272;22193;-82
2023/10/07 01:37:16;;;;;;;4.30;2.30;;;;;;;11.56;96.34;99215.44;272920;1272;22348;-81
2023/10/07 01:43:19;;;;;;;6.30;2.90;;;;;;;11.48;96.25;99206.17;272704;1270;23572;-82
2023/10/07 01:49:21;;;;;;;9.90;3.90;;;;;;;11.41;96.55;99200.06;272918;1272;22162;-82
2023/10/07 01:55:27;;;;;;;13.80;5.40;;;;;;;11.42;96.82;99197.25;272925;1269;23128;-81
2023/10/07 02:01:29;;;;;;;13.40;6.50;;;;;;;11.45;96.94;99192.52;272851;1270;22207;-81
2023/10/07 02:07:36;;;;;;;13.10;5.90;;;;;;;11.50;97.07;99184.96;271932;1271;22499;-81
2023/10/07 02:13:38;;;;;;;11.20;4.10;;;;;;;11.61;97.27;99173.73;270520;1255;22527;-81
2023/10/07 02:19:41;;;;;;;6.30;3.30;;;;;;;11.69;96.86;99161.38;269868;1272;23793;-82
2023/10/07 02:25:49;;;;;;;7.20;2.80;;;;;;;11.73;96.80;99153.19;270754;1271;22397;-81
2023/10/07 02:31:53;;;;;;;8.30;2.90;;;;;;;11.75;96.79;99148.35;271662;1272;22254;-81
2023/10/07 02:37:57;;;;;;;5.40;3.00;;;;;;;11.78;97.09;99142.02;272074;1271;25502;-82
2023/10/07 02:44:05;;;;;;;6.90;2.60;;;;;;;11.83;97.73;99147.80;270282;1272;23230;-82
2023/10/07 02:50:08;;;;;;;6.60;2.20;;;;;;;11.84;97.10;99143.73;269119;1272;23946;-82
2023/10/07 02:56:21;;;;;;;6.00;2.90;;;;;;;11.83;96.77;99136.98;269199;1269;22575;-81
2023/10/07 03:02:37;;;;;;;5.60;2.70;;;;;;;11.88;96.79;99131.05;270689;1272;24156;-82
2023/10/07 03:09:09;;;;;;;7.60;3.10;;;;;;;11.88;96.43;99122.13;269950;1272;22356;-82
2023/10/07 03:15:41;;;;;;;4.90;2.50;;;;;;;11.91;96.23;99111.02;270711;1272;23162;-83
2023/10/07 03:21:55;;;;;;;6.70;3.20;;;;;;;12.00;96.24;99111.02;269370;1272;22530;-82
2023/10/07 03:27:57;;;;;;;11.30;3.30;;;;;;;12.09;97.14;99105.73;269357;1272;22562;-81
2023/10/07 03:33:59;;;;;;;6.70;2.70;;;;;;;12.11;97.28;99103.33;270366;1272;22504;-82
2023/10/07 03:46:27;;;;;;;7.90;3.00;;;;;;;12.13;98.17;99099.58;270404;1272;22605;-82
2023/10/07 03:52:35;;;;;;;8.20;3.00;;;;;;;12.09;97.60;99104.33;269901;1272;124705;-82
2023/10/07 03:58:43;;;;;;;7.60;3.00;;;;;;;12.12;98.15;99101.77;271276;1272;22313;-82
2023/10/07 04:04:45;;;;;;;12.20;3.20;;;;;;;12.12;97.85;99096.89;271599;1273;22416;-82
2023/10/07 04:10:47;;;;;;;9.80;3.30;;;;;;;12.07;97.66;99099.77;272530;1272;23251;-81
2023/10/07 04:16:49;;;;;;;6.10;3.50;;;;;;;12.02;97.68;99096.52;270557;1272;22550;-83
2023/10/07 04:22:57;;;;;;;8.50;3.80;;;;;;;11.97;97.81;99085.35;269913;1272;22587;-83
2023/10/07 04:28:59;;;;;;;13.60;3.30;;;;;;;11.97;98.80;99086.45;273193;1273;22219;-82
2023/10/07 04:35:15;;;;;;;11.30;3.50;;;;;;;11.98;98.57;99085.36;272697;1270;22272;-82
2023/10/07 04:53:38;;;;;;;7.80;3.80;;;;;;;11.94;99.41;99073.50;273375;1272;22189;-82
2023/10/07 04:59:45;;;;;;;9.30;4.00;;;;;;;11.91;99.59;99083.66;272680;1270;22235;-82
2023/10/07 05:05:47;;;;;;;;;;;;;;;11.90;99.87;99098.39;272524;1271;22423;-83
2023/10/07 05:11:49;;;;;;;7.30;3.90;;;;;;;11.94;100.00;99098.19;272766;1270;22308;-82
2023/10/07 05:17:52;;;;;;;6.30;3.30;;;;;;;11.99;100.00;99097.29;272658;1270;22220;-82
2023/10/07 05:23:55;;;;;;;5.50;3.40;;;;;;;12.01;100.00;99098.63;272687;1270;22896;-82
2023/10/07 05:30:03;;;;;;;7.00;3.60;;;;;;;12.08;100.00;99092.23;270921;1270;25412;-82
2023/10/07 05:36:20;;;;;;;10.80;3.90;;;;;;;12.13;100.00;99097.69;270017;1270;22613;-82
2023/10/07 05:42:23;;;;;;;7.90;3.60;;;;;;;12.21;100.00;99089.52;270552;1271;22208;-82
2023/10/07 05:48:25;;;;;;;7.10;3.10;;;;;;;12.38;100.00;99091.02;270769;1264;23957;-82
2023/10/07 05:54:28;;;;;;;7.50;3.50;;;;;;;12.53;100.00;99095.40;271049;1270;22344;-82
2023/10/07 06:00:31;;;;;;;10.50;3.90;;;;;;;12.56;100.00;99106.09;273249;1273;22206;-82
2023/10/07 06:06:33;;;;;;;8.50;3.30;;;;;;;12.59;100.00;99122.42;272602;1272;22440;-82
2023/10/07 06:12:53;;;;;;;6.40;3.80;;;;;;;12.62;100.00;99121.49;272768;1270;22358;-83
2023/10/07 06:18:58;;;;;;;7.80;3.60;;;;;;;12.69;100.00;99118.79;271295;1270;23759;-81
2023/10/07 06:25:04;;;;;;;8.80;3.40;;;;;;;12.74;100.00;99113.95;269610;1266;22571;-82
2023/10/07 06:31:11;;;;;;;7.00;3.50;;;;;;;12.83;100.00;99115.95;270954;1270;22655;-81
2023/10/07 06:37:13;;;;;;;7.60;3.70;;;;;;;12.96;99.90;99118.90;270623;1272;22580;-82
2023/10/07 06:43:15;;;;;;;8.10;3.70;;;;;;;13.09;99.54;99125.26;269499;1270;22609;-82
2023/10/07 06:49:18;;;;;;;9.50;4.00;;;;;;;13.24;99.05;99129.38;270703;1271;22211;-82
2023/10/07 06:55:23;;;;;;;8.50;4.40;;;;;;;13.43;99.11;99130.90;273076;1272;22176;-83
2023/10/07 07:01:35;;;;;;;10.00;4.40;;;;;;;13.59;99.28;99133.52;272579;1271;22187;-83
2023/10/07 07:07:41;;;;;;;10.80;3.70;;;;;;;13.68;99.09;99138.64;272824;1272;22212;-82
2023/10/07 07:13:44;;;;;;;9.20;3.70;;;;;;;13.77;99.29;99138.97;273057;1271;22837;-82
2023/10/07 07:19:45;;;;;;;11.50;4.20;;;;;;;13.85;99.15;99128.11;272729;1270;22291;-83
2023/10/07 07:26:03;;;;;;;11.80;5.30;;;;;;;14.05;99.21;99118.05;272682;1272;23311;-81
2023/10/07 07:32:12;;;;;;;11.50;4.10;;;;;;;14.36;99.24;99108.35;272689;1271;23180;-82
2023/10/07 07:38:30;;;;;;;10.10;4.00;;;;;;;14.72;98.97;99099.36;272646;1270;22222;-83
2023/10/07 07:44:32;;;;;;;7.70;3.70;;;;;;;15.03;98.22;99090.55;272752;1270;23704;-82
2023/10/07 07:50:40;;;;;;;6.20;3.30;;;;;;;15.17;97.32;99085.29;273118;1271;22345;-82
2023/10/07 07:56:45;;;;;;;9.70;3.30;;;;;;;15.27;96.43;99093.49;272686;1272;22213;-82
2023/10/07 08:02:49;;;;;;;9.40;3.60;;;;;;;15.35;96.14;99093.20;272745;1270;22211;-83
2023/10/07 08:08:54;;;;;;;5.80;3.10;;;;;;;15.42;95.85;99095.61;272956;1264;22191;-82
2023/10/07 08:15:38;;;;;;;;;;;;;;;;;;;;;
2023/10/07 08:21:33;;;;;;;7.40;3.60;;;;;;;15.57;95.46;99096.23;272744;1272;22844;-82
2023/10/07 08:27:49;;;;;;;7.90;3.70;;;;;;;15.66;95.30;99100.98;272758;1272;23861;-82
2023/10/07 08:33:53;;;;;;;9.70;4.30;;;;;;;15.75;95.48;99094.11;272393;1265;23005;-83
2023/10/07 08:39:56;;;;;;;7.30;3.30;;;;;;;15.91;95.15;99099.59;272038;1272;23006;-83
2023/10/07 08:46:01;;;;;;;9.70;4.40;;;;;;;16.07;95.30;99099.91;270574;1272;23624;-82
2023/10/07 08:52:08;;;;;;;7.50;4.00;;;;;;;16.59;95.95;99096.77;272219;1269;22215;-83
2023/10/07 08:58:14;;;;;;;7.20;3.90;;;;;;;17.72;95.70;99089.21;272578;1272;22187;-84
2023/10/07 09:04:18;;;;;;;10.20;4.10;;;;;;;19.24;94.12;99069.96;271684;1272;23021;-82
2023/10/07 09:10:27;;;;;;;7.70;3.70;;;;;;;19.79;90.60;99057.71;270696;1272;24193;-84
2023/10/07 09:16:32;;;;;;;11.00;3.90;;;;;;;20.50;90.19;99053.52;270717;1270;23337;-83
2023/10/07 09:22:35;;;;;;;6.30;3.20;;;;;;;21.69;88.26;99052.17;270408;1270;23887;-83
2023/10/07 09:28:38;;;;;;;9.50;4.10;;;;;;;22.31;85.50;99053.73;272316;1272;22419;-84
2023/10/07 09:34:45;;;;;;;7.70;3.80;;;;;;;22.70;83.71;99052.89;273143;1271;22484;-84
2023/10/07 09:47:03;;;;;;;7.60;3.40;;;;;;;24.35;79.33;99027.88;271890;1272;24193;-83
2023/10/07 09:53:30;;;;;;;;;;;;;;;;;;;;;
2023/10/07 09:59:48;;;;;;;;;;;;;;;24.80;73.73;99032.69;270873;1270;23720;-83
2023/10/07 10:06:25;;;;;;;9.30;4.00;;;;;;;25.06;72.63;99031.40;270315;1271;22527;-83
2023/10/07 10:12:56;;;;;;;11.50;3.10;;;;;;;25.25;71.11;99020.33;271745;1272;23549;-84
2023/10/07 10:19:22;;;;;;;6.30;3.40;;;;;;;25.05;69.34;99024.10;272305;1270;22326;-84
2023/10/07 10:25:39;;;;;;;;;;;;;;;24.88;68.48;99021.85;271221;1270;22479;-85
2023/10/07 10:32:00;;;;;;;5.60;2.70;;;;;;;24.74;66.34;99013.79;271821;1271;23582;-85
2023/10/07 10:38:09;;;;;;;4.40;2.60;;;;;;;24.47;65.69;99001.06;272077;1272;22508;-84
2023/10/07 10:44:12;;;;;;;5.40;2.90;;;;;;;24.04;64.57;98998.65;272823;1268;23211;-86
2023/10/07 10:50:27;;;;;;;;;;;;;;;;;;;;;
2023/10/07 10:56:47;;;;;;;11.30;2.70;;;;;;;23.02;64.18;98989.26;271140;1263;22683;-83
2023/10/07 11:02:51;;;;;;;9.00;2.90;;;;;;;22.77;63.81;98985.65;270032;1270;22542;-83
2023/10/07 11:08:53;;;;;;;6.10;3.10;;;;;;;22.59;63.19;98971.54;270837;1270;24278;-83
2023/10/07 11:15:24;;;;;;;6.20;2.90;;;;;;;22.46;62.93;98959.66;270341;1270;22561;-84
2023/10/07 11:21:27;;;;;;;7.40;3.20;;;;;;;22.20;62.49;98952.50;270669;1270;22321;-85
2023/10/07 11:27:30;;;;;;;6.00;3.20;;;;;;;21.81;62.18;98955.16;271638;1272;22294;-84
2023/10/07 11:33:57;;;;;;;5.60;3.10;;;;;;;21.60;62.03;98954.96;273083;1272;22442;-85
2023/10/07 11:40:00;;;;;;;6.90;3.40;;;;;;;21.40;61.77;98959.39;272715;1271;22361;-85
2023/10/07 11:46:03;;;;;;;6.80;3.20;;;;;;;21.20;61.99;98950.96;273020;1270;22291;-84
2023/10/07 11:52:08;;;;;;;8.00;3.60;;;;;;;21.17;62.24;98941.06;272669;1270;23876;-85
2023/10/07 11:58:09;;;;;;;9.20;3.50;;;;;;;21.16;62.26;98938.48;272382;1271;22943;-83
2023/10/07 12:04:11;;;;;;;9.50;3.50;;;;;;;21.09;62.02;98935.52;272633;1270;22219;-84
2023/10/07 12:10:15;;;;;;;9.30;3.70;;;;;;;21.00;62.04;98933.88;272469;1270;22211;-83
2023/10/07 12:16:17;;;;;;;8.70;3.20;;;;;;;21.00;61.90;98937.64;272170;1271;22246;-83
2023/10/07 12:22:19;;;;;;;10.20;3.80;;;;;;;21.15;62.60;98933.16;270717;1272;22228;-85
2023/10/07 12:28:21;;;;;;;7.60;3.80;;;;;;;21.24;62.72;98923.65;270631;1271;25946;-84
2023/10/07 12:34:23;;;;;;;7.40;3.50;;;;;;;21.16;62.13;98916.92;270015;1270;22460;-83
2023/10/07 12:40:28;;;;;;;8.50;3.50;;;;;;;20.98;62.38;98899.98;270820;1265;25571;-83
2023/10/07 12:46:30;;;;;;;8.80;3.60;;;;;;;20.87;62.22;98900.98;270694;1263;22447;-83
2023/10/07 12:52:34;;;;;;;13.70;4.10;;;;;;;20.75;62.09;98896.83;272638;1271;23301;-85
2023/10/07 12:58:35;;;;;;;7.20;3.90;;;;;;;20.63;62.92;98886.49;271570;1270;22328;-84
2023/10/07 13:04:37;;;;;;;7.60;3.40;;;;;;;20.56;62.97;98897.66;272626;1270;22295;-83
2023/10/07 13:10:39;;;;;;;13.10;3.90;;;;;;;20.49;63.11;98897.15;272727;1272;22216;-82
2023/10/07 13:16:45;;;;;;;10.70;4.10;;;;;;;20.42;63.38;98891.98;272406;1272;23790;-83
2023/10/07 13:22:50;;;;;;;7.50;3.50;;;;;;;20.41;63.46;98891.14;272438;1272;23178;-85
2023/10/07 13:28:55;;;;;;;9.80;3.90;;;;;;;20.39;63.05;98906.20;270452;1272;22503;-85
2023/10/07 13:34:57;;;;;;;7.90;3.70;;;;;;;20.37;63.20;98907.14;271073;1272;22547;-84
2023/10/07 13:41:03;;;;;;;8.30;4.10;;;;;;;20.24;62.87;98912.67;270399;1272;22542;-83
2023/10/07 13:47:07;;;;;;;11.50;4.10;;;;;;;20.05;63.03;98916.21;270015;1272;22558;-82
2023/10/07 13:59:11;;;;;;;8.60;4.20;;;;;;;19.63;63.88;98917.36;272612;1268;23412;-83
2023/10/07 14:05:14;;;;;;;11.20;4.40;;;;;;;19.53;63.86;98921.35;270844;1266;23679;-84
2023/10/07 14:11:16;;;;;;;6.80;3.80;;;;;;;19.48;64.13;98925.08;272501;1271;22188;-85
2023/10/07 14:17:19;;;;;;;8.20;4.20;;;;;;;19.39;64.78;98931.95;271631;1272;22431;-82
2023/10/07 14:23:22;;;;;;;10.40;3.90;;;;;;;19.26;65.22;98939.15;270984;1268;22282;-81
2023/10/07 14:29:26;;;;;;;12.00;3.80;;;;;;;19.15;65.26;98947.44;271113;1272;22438;-81
2023/10/07 14:35:28;;;;;;;9.70;4.70;;;;;;;19.09;65.55;98942.97;272381;1268;22398;-81
2023/10/07 14:41:30;;;;;;;10.00;3.90;;;;;;;19.04;66.03;98933.25;271583;1272;23212;-83
2023/10/07 14:47:32;;;;;;;13.10;4.70;;;;;;;18.98;66.19;98907.02;270742;1272;22604;-82
2023/10/07 14:53:34;;;;;;;9.10;4.30;;;;;;;18.95;66.61;98897.91;272605;1268;23361;-81
2023/10/07 14:59:36;;;;;;;9.10;4.50;;;;;;;18.95;66.94;98900.67;270433;1272;22349;-83
2023/10/07 15:05:42;;;;;;;9.10;3.80;;;;;;;18.89;67.36;98905.58;271852;1272;22405;-82
2023/10/07 15:11:50;;;;;;;8.50;3.30;;;;;;;18.83;67.99;98905.95;272415;1272;23684;-82
2023/10/07 15:17:52;;;;;;;10.10;4.20;;;;;;;18.78;68.53;98898.39;270712;1268;22563;-83
2023/10/07 15:23:54;;;;;;;12.40;4.10;;;;;;;18.71;68.97;98892.28;270953;1272;23528;-81
2023/10/07 15:30:01;;;;;;;7.90;4.10;;;;;;;18.64;69.69;98881.27;271309;1272;24370;-81
2023/10/07 15:36:03;;;;;;;9.40;3.70;;;;;;;18.58;70.22;98874.69;272422;1270;22347;-81
2023/10/07 15:42:08;;;;;;;8.50;3.70;;;;;;;18.52;70.56;98876.24;272791;1271;22707;-82
2023/10/07 15:48:22;;;;;;;7.40;3.70;;;;;;;18.47;71.02;98867.33;268605;1272;5424831;-81
2023/10/07 15:54:28;;;;;;;10.10;4.10;;;;;;;18.42;71.36;98857.86;272780;1272;22390;-82
2023/10/07 16:00:33;;;;;;;9.10;3.90;;;;;;;18.37;71.59;98850.89;272623;1269;22320;-83
2023/10/07 16:06:51;;;;;;;9.00;4.80;;;;;;;18.33;71.98;98848.83;272837;1272;22163;-82
2023/10/07 16:13:00;;;;;;;8.40;4.20;;;;;;;18.26;72.55;98836.25;272609;1272;23049;-82
2023/10/07 16:19:04;;;;;;;10.40;4.30;;;;;;;18.21;72.84;98822.19;271503;1272;23464;-83
2023/10/07 16:25:07;;;;;;;8.60;4.30;;;;;;;18.18;73.47;98809.30;272868;1271;22338;-83
2023/10/07 16:31:09;;;;;;;8.10;4.60;;;;;;;18.09;74.20;98800.55;272751;1268;22531;-82
2023/10/07 16:37:14;;;;;;;6.90;4.10;;;;;;;17.99;74.82;98793.58;272639;1272;23591;-83
2023/10/07 16:43:17;;;;;;;9.50;4.10;;;;;;;17.93;75.40;98780.33;271866;1272;24203;-82
2023/10/07 16:49:18;;;;;;;8.60;4.50;;;;;;;17.85;75.95;98769.27;271024;1270;22504;-83
2023/10/07 16:55:20;;;;;;;9.70;4.00;;;;;;;17.78;76.30;98766.73;271202;1266;24024;-82
2023/10/07 17:01:22;;;;;;;6.60;4.00;;;;;;;17.73;77.21;98763.75;264270;1270;10002489;-83
2023/10/07 17:07:25;;;;;;;7.50;4.10;;;;;;;17.65;77.67;98772.87;270219;1272;22683;-82
2023/10/07 17:13:27;;;;;;;8.30;3.90;;;;;;;17.58;78.21;98783.20;272207;1272;24036;-84
2023/10/07 17:19:30;;;;;;;10.00;3.90;;;;;;;17.56;78.66;98792.17;270960;1272;22351;-82
2023/10/07 17:25:32;;;;;;;8.10;4.60;;;;;;;17.55;79.14;98811.34;271439;1270;22548;-82
2023/10/07 17:31:36;;;;;;;8.60;4.10;;;;;;;17.56;79.39;98816.85;270852;1272;23217;-83
2023/10/07 17:37:38;;;;;;;10.10;3.40;;;;;;;17.58;79.60;98825.73;271365;1265;22422;-84
2023/10/07 17:43:43;;;;;;;11.60;3.20;;;;;;;17.64;79.95;98816.06;270294;1272;23747;-83
2023/10/07 17:49:49;;;;;;;10.80;3.10;;;;;;;17.78;79.72;98821.38;272318;1272;22348;-83
2023/10/07 17:55:51;;;;;;;6.20;3.10;;;;;;;17.90;79.99;98825.25;272796;1264;22204;-82
2023/10/07 18:01:53;;;;;;;7.20;3.10;;;;;;;17.85;80.64;98817.38;272581;1272;23263;-84
2023/10/07 18:08:02;;;;;;;12.40;3.80;;;;;;;17.82;80.83;98816.39;273418;1272;22205;-83
2023/10/07 18:14:05;;;;;;;7.10;3.20;;;;;;;17.86;81.03;98823.53;273358;1278;22227;-84
2023/10/07 18:20:12;;;;;;;8.10;2.90;;;;;;;17.86;81.32;98826.94;272719;1271;22279;-80
2023/10/07 18:26:14;;;;;;;;;;;;;;;17.83;81.72;98834.19;272595;1272;22426;-84
2023/10/07 18:32:17;;;;;;;10.70;3.20;;;;;;;17.73;82.39;98841.89;271924;1271;22359;-84
2023/10/07 18:38:20;;;;;;;9.50;3.00;;;;;;;17.47;84.10;98849.91;272739;1269;22153;-84
2023/10/07 18:44:22;;;;;;;9.40;3.60;;;;;;;17.25;85.21;98852.74;272636;1272;23429;-83
2023/10/07 18:50:25;;;;;;;6.50;3.20;;;;;;;17.13;85.58;98852.86;272510;1272;22339;-83
2023/10/07 18:56:30;;;;;;;7.50;3.70;;;;;;;17.09;85.87;98853.27;272813;1272;22404;-83
2023/10/07 19:02:35;;;;;;;10.50;3.60;;;;;;;17.10;86.02;98843.85;273231;1272;23359;-84
2023/10/07 19:08:37;;;;;;;8.20;3.80;;;;;;;17.16;86.18;98850.53;272724;1272;22348;-83
2023/10/07 19:14:39;;;;;;;11.60;3.70;;;;;;;17.22;86.02;98852.48;272720;1272;22346;-83
2023/10/07 19:20:55;;;;;;;8.30;3.50;;;;;;;17.25;86.28;98864.92;272767;1265;22418;-81
2023/10/07 19:26:57;;;;;;;10.00;3.70;;;;;;;17.15;86.97;98872.13;272807;1272;22275;-85
2023/10/07 19:32:59;;;;;;;7.80;3.30;;;;;;;16.99;87.80;98859.59;272748;1270;22399;-83
2023/10/07 19:39:01;;;;;;;6.90;3.40;;;;;;;16.84;88.79;98850.05;273094;1272;22210;-83
2023/10/07 19:45:04;;;;;;;7.90;3.40;;;;;;;16.72;89.48;98843.14;272700;1272;22386;-82
2023/10/07 19:51:06;;;;;;;6.40;3.10;;;;;;;16.68;89.95;98845.18;273087;1272;22197;-83
2023/10/07 19:57:08;;;;;;;8.00;3.50;;;;;;;16.70;90.10;98835.44;272710;1270;23407;-84
2023/10/07 20:03:10;;;;;;;8.50;2.80;;;;;;;16.69;90.35;98830.55;272627;1270;23550;-82
2023/10/07 20:09:12;;;;;;;9.10;3.40;;;;;;;16.69;90.68;98822.27;272120;1263;22295;-83
2023/10/07 20:15:14;;;;;;;7.60;3.60;;;;;;;16.69;90.85;98810.89;272890;1272;23184;-84
2023/10/07 20:21:16;;;;;;;7.20;3.60;;;;;;;16.72;90.99;98799.94;272355;1270;22275;-83
2023/10/07 20:27:39;;;;;;;9.60;3.40;;;;;;;16.76;90.96;98797.83;270383;1270;22276;-82
2023/10/07 20:33:42;;;;;;;11.50;3.90;;;;;;;16.80;90.96;98795.30;271397;1270;22280;-84
2023/10/07 20:39:47;;;;;;;8.50;3.80;;;;;;;16.86;90.97;98798.28;271524;1270;22563;-83
2023/10/07 20:45:56;;;;;;;8.70;4.40;;;;;;;16.90;90.83;98783.35;270041;1270;22724;-82
2023/10/07 20:51:58;;;;;;;10.30;3.80;;;;;;;16.92;90.89;98771.77;270294;1272;23650;-82
2023/10/07 20:58:01;;;;;;;6.80;3.50;;;;;;;16.93;90.91;98763.95;269833;1272;25274;-82
2023/10/07 21:04:03;;;;;;;8.70;3.70;;;;;;;16.93;91.07;98745.85;272266;1270;22170;-83
2023/10/07 21:10:05;;;;;;;9.10;3.90;;;;;;;16.93;91.17;98735.98;270980;1270;23361;-83
2023/10/07 21:16:13;;;;;;;10.60;4.70;;;;;;;16.96;91.11;98734.52;270921;1257;22537;-82
2023/10/07 21:22:15;;;;;;;9.90;3.70;;;;;;;16.99;91.22;98732.32;270042;1263;22628;-81
2023/10/07 21:28:18;;;;;;;8.40;3.40;;;;;;;17.02;90.99;98727.29;270151;1256;25451;-82
2023/10/07 21:34:20;;;;;;;9.30;3.10;;;;;;;17.08;90.79;98723.53;269388;1270;22356;-84
2023/10/07 21:40:21;;;;;;;9.10;3.70;;;;;;;17.16;90.66;98721.34;269610;1270;22219;-82
2023/10/07 21:46:23;;;;;;;8.70;3.10;;;;;;;17.20;90.53;98717.06;270142;1272;23848;-83
2023/10/07 21:52:26;;;;;;;8.70;4.20;;;;;;;17.22;90.49;98705.58;272415;1270;23365;-83
2023/10/07 21:58:27;;;;;;;6.70;3.30;;;;;;;17.25;90.31;98696.81;270775;1270;24199;-82
2023/10/07 22:04:29;;;;;;;8.80;3.60;;;;;;;17.27;90.02;98684.20;270739;1271;22534;-82
2023/10/07 22:10:33;;;;;;;8.80;3.80;;;;;;;17.28;89.94;98679.29;269807;1270;22712;-82
2023/10/07 22:16:36;;;;;;;11.60;4.20;;;;;;;17.27;89.74;98669.11;271943;1272;23034;-85
2023/10/07 22:22:40;;;;;;;9.90;4.40;;;;;;;17.27;89.57;98670.63;270360;1270;23348;-84
2023/10/07 22:28:42;;;;;;;12.40;2.80;;;;;;;17.31;89.39;98682.00;269941;1272;22567;-81
2023/10/07 22:34:46;;;;;;;6.90;2.90;;;;;;;17.30;89.55;98687.52;269406;1270;22564;-86
2023/10/07 22:40:57;;;;;;;9.00;3.30;;;;;;;17.24;89.52;98679.77;269857;1270;23861;-83
2023/10/07 22:47:27;;;;;;;7.60;2.90;;;;;;;17.25;89.37;98674.92;270495;1272;22541;-83
2023/10/07 22:53:49;;;;;;;5.80;3.20;;;;;;;17.24;89.31;98673.66;271126;1270;22585;-83
2023/10/07 22:59:52;;;;;;;9.80;3.50;;;;;;;17.25;89.12;98672.61;270135;1270;22515;-81
2023/10/07 23:06:01;;;;;;;13.20;4.10;;;;;;;17.22;89.15;98662.17;270651;1270;22540;-82
2023/10/07 23:12:14;;;;;;;9.60;3.30;;;;;;;17.18;88.88;98660.98;270674;1272;22588;-82
2023/10/07 23:18:20;;;;;;;8.70;3.50;;;;;;;17.16;88.94;98654.78;270826;1267;25433;-82
2023/10/07 23:30:44;;;;;;;9.50;3.60;;;;;;;17.10;88.86;98656.73;271565;1272;22587;-82
2023/10/07 23:36:53;;;;;;;12.60;3.00;;;;;;;17.09;88.67;98658.25;270117;1271;24259;-82
2023/10/07 23:42:54;;;;;;;8.00;2.90;;;;;;;17.09;88.71;98660.52;270328;1266;24235;-82
2023/10/07 23:48:59;;;;;;;9.10;3.30;;;;;;;17.08;88.57;98658.91;270873;1270;22939;-83
2023/10/07 23:55:06;;;;;;;13.00;3.60;;;;;;;17.07;88.43;98658.59;269798;1272;22319;-83
